Time;durP1;ratioP1;P1;durP2;ratioP2;P2;SDS_P1;SDS_P2;PMS_P1;PMS_P2;Temp;Humidity;BMP_temperature;BMP_pressure;BME280_temperature;BME280_humidity;BME280_pressure;Samples;Min_cycle;Max_cycle;Signal;HPM_P1;HPM_P2
2023/12/28 00:01:58;;;;;;;;;;;8.90;99.90;;;;;;4945168;28;20378;-57
2023/12/28 00:04:24;;;;;;;;;;;8.90;99.90;;;;;;4941668;28;20067;-58
2023/12/28 00:06:49;;;;;;;;;;;8.90;99.90;;;;;;4917857;28;19926;-57
2023/12/28 00:09:15;;;;;;;;;;;8.90;99.90;;;;;;4945657;28;19929;-58
2023/12/28 00:11:40;;;;;;;;;;;8.90;99.90;;;;;;4941799;28;19960;-58
2023/12/28 00:14:06;;;;;;;;;;;8.90;99.90;;;;;;4940376;28;20512;-57
2023/12/28 00:16:37;;;;;;;;;;;8.90;99.90;;;;;;4941554;28;19922;-58
2023/12/28 00:19:03;;;;;;;;;;;8.90;99.90;;;;;;4942994;28;19980;-55
2023/12/28 00:21:29;;;;;;;;;;;8.90;99.90;;;;;;4946313;28;20047;-58
2023/12/28 00:23:55;;;;;;;;;;;8.90;99.90;;;;;;4941952;28;19965;-58
2023/12/28 00:26:21;;;;;;;;;;;8.90;99.90;;;;;;4943427;28;21933;-57
2023/12/28 00:28:47;;;;;;;;;;;8.90;99.90;;;;;;4943367;28;20194;-58
2023/12/28 00:31:13;;;;;;;;;;;8.90;99.90;;;;;;4942295;28;19926;-58
2023/12/28 00:33:38;;;;;;;;;;;8.90;99.90;;;;;;4945565;28;19930;-58
2023/12/28 00:36:04;;;;;;;;;;;8.90;99.90;;;;;;4928412;28;20008;-58
2023/12/28 00:38:29;;;;;;;;;;;8.90;99.90;;;;;;4939373;28;20289;-57
2023/12/28 00:40:55;;;;;;;;;;;8.90;99.90;;;;;;4947175;28;19926;-57
2023/12/28 00:43:21;;;;;;;;;;;8.90;99.90;;;;;;4940665;28;19925;-58
2023/12/28 00:45:46;;;;;;;;;;;8.90;99.90;;;;;;4941933;28;19971;-57
2023/12/28 00:48:12;;;;;;;;;;;8.90;99.90;;;;;;4942208;28;19926;-57
2023/12/28 00:50:38;;;;;;;;;;;8.90;99.90;;;;;;4942495;28;19922;-55
2023/12/28 00:53:03;;;;;;;;;;;8.90;99.90;;;;;;4941748;28;19930;-56
2023/12/28 00:55:29;;;;;;;;;;;8.90;99.90;;;;;;4939524;28;20407;-57
2023/12/28 00:57:55;;;;;;;;;;;8.90;99.90;;;;;;4937865;28;19926;-58
2023/12/28 01:00:20;;;;;;;;;;;8.90;99.90;;;;;;4913490;28;19974;-58
2023/12/28 01:02:49;;;;;;;;;;;8.90;99.90;;;;;;4942467;28;19922;-56
2023/12/28 01:05:15;;;;;;;;;;;8.90;99.90;;;;;;4943255;28;20586;-57
2023/12/28 01:07:41;;;;;;;;;;;8.90;99.90;;;;;;4941761;28;19929;-58
2023/12/28 01:10:06;;;;;;;;;;;8.90;99.90;;;;;;4927164;28;20477;-57
2023/12/28 01:12:33;;;;;;;;;;;8.90;99.90;;;;;;4945153;28;22454;-56
2023/12/28 01:14:58;;;;;;;;;;;8.90;99.90;;;;;;4938264;28;20028;-58
2023/12/28 01:17:24;;;;;;;;;;;8.90;99.90;;;;;;4939055;28;19930;-56
2023/12/28 01:19:50;;;;;;;;;;;8.90;99.90;;;;;;4923805;28;21269;-56
2023/12/28 01:22:15;;;;;;;;;;;8.90;99.90;;;;;;4941516;28;20369;-57
2023/12/28 01:24:41;;;;;;;;;;;8.90;99.90;;;;;;4941790;28;19926;-58
2023/12/28 01:27:06;;;;;;;;;;;8.90;99.90;;;;;;4938406;28;19921;-59
2023/12/28 01:29:33;;;;;;;;;;;8.90;99.90;;;;;;4935102;28;19922;-58
2023/12/28 01:31:59;;;;;;;;;;;8.90;99.90;;;;;;4934841;28;19930;-58
2023/12/28 01:34:25;;;;;;;;;;;8.90;99.90;;;;;;4943415;28;20527;-57
2023/12/28 01:36:50;;;;;;;;;;;8.90;99.90;;;;;;4944557;28;19973;-56
2023/12/28 01:39:18;;;;;;;;;;;8.90;99.90;;;;;;4940359;28;19951;-58
2023/12/28 01:41:44;;;;;;;;;;;8.90;99.90;;;;;;4931497;28;19983;-59
2023/12/28 01:44:09;;;;;;;;;;;8.90;99.90;;;;;;4941206;28;19926;-57
2023/12/28 01:46:35;;;;;;;;;;;8.90;99.90;;;;;;4939509;28;20412;-59
2023/12/28 01:49:01;;;;;;;;;;;8.90;99.90;;;;;;4940372;28;19926;-56
2023/12/28 01:51:27;;;;;;;;;;;8.90;99.90;;;;;;4925063;28;19981;-57
2023/12/28 01:53:53;;;;;;;;;;;8.90;99.90;;;;;;4925610;28;20301;-57
2023/12/28 01:56:19;;;;;;;;;;;8.80;99.90;;;;;;4940770;28;20106;-58
2023/12/28 01:58:46;;;;;;;;;;;8.80;99.90;;;;;;4935924;28;20164;-56
2023/12/28 02:01:11;;;;;;;;;;;8.80;99.90;;;;;;4935671;28;22215;-58
2023/12/28 02:03:38;;;;;;;;;;;8.80;99.90;;;;;;4938504;28;19928;-56
2023/12/28 02:06:06;;;;;;;;;;;8.80;99.90;;;;;;4940696;28;20381;-57
2023/12/28 02:08:31;;;;;;;;;;;8.80;99.90;;;;;;4909397;28;19930;-57
2023/12/28 02:10:57;;;;;;;;;;;8.80;99.90;;;;;;4920325;28;19972;-57
2023/12/28 02:13:23;;;;;;;;;;;8.80;99.90;;;;;;4937974;28;20511;-58
2023/12/28 02:15:53;;;;;;;;;;;8.80;99.90;;;;;;4924669;28;19933;-58
2023/12/28 02:18:21;;;;;;;;;;;8.80;99.90;;;;;;4940592;28;19997;-58
2023/12/28 02:20:48;;;;;;;;;;;8.80;99.90;;;;;;4940391;28;19981;-58
2023/12/28 02:23:14;;;;;;;;;;;8.80;99.90;;;;;;4939234;28;20167;-57
2023/12/28 02:25:39;;;;;;;;;;;8.80;99.90;;;;;;4937497;28;19933;-58
2023/12/28 02:28:05;;;;;;;;;;;8.80;99.90;;;;;;4938668;28;19937;-58
2023/12/28 02:30:31;;;;;;;;;;;8.80;99.90;;;;;;4937270;28;19926;-58
2023/12/28 02:32:59;;;;;;;;;;;8.80;99.90;;;;;;4935604;28;20301;-58
2023/12/28 02:35:41;;;;;;;;;;;8.80;99.90;;;;;;4940774;28;19928;-57
2023/12/28 02:38:09;;;;;;;;;;;8.80;99.90;;;;;;4939152;28;19926;-56
2023/12/28 02:40:38;;;;;;;;;;;8.70;99.90;;;;;;4939560;28;20428;-57
2023/12/28 02:43:05;;;;;;;;;;;8.80;99.90;;;;;;4943788;28;20091;-56
2023/12/28 02:45:31;;;;;;;;;;;8.80;99.90;;;;;;4939936;28;19976;-58
2023/12/28 02:47:56;;;;;;;;;;;8.80;99.90;;;;;;4930643;28;19922;-57
2023/12/28 02:50:22;;;;;;;;;;;8.80;99.90;;;;;;4928786;28;19922;-57
2023/12/28 02:52:47;;;;;;;;;;;8.80;99.90;;;;;;4937012;28;19972;-57
2023/12/28 02:55:13;;;;;;;;;;;8.90;99.90;;;;;;4938069;28;19926;-58
2023/12/28 02:57:38;;;;;;;;;;;8.90;99.90;;;;;;4937500;28;19939;-58
2023/12/28 03:00:05;;;;;;;;;;;9.00;99.90;;;;;;4938346;28;20040;-58
2023/12/28 03:02:30;;;;;;;;;;;9.00;99.90;;;;;;4916640;28;19933;-58
2023/12/28 03:04:56;;;;;;;;;;;9.00;99.90;;;;;;4929294;28;20408;-56
2023/12/28 03:07:25;;;;;;;;;;;9.10;99.90;;;;;;4938790;28;20012;-57
2023/12/28 03:09:51;;;;;;;;;;;9.10;99.90;;;;;;4914041;28;19929;-57
2023/12/28 03:12:16;;;;;;;;;;;9.20;99.90;;;;;;4938246;28;19952;-58
2023/12/28 03:14:42;;;;;;;;;;;9.20;99.90;;;;;;4935375;28;19926;-58
2023/12/28 03:17:09;;;;;;;;;;;9.20;99.90;;;;;;4925555;28;19932;-58
2023/12/28 03:19:36;;;;;;;;;;;9.20;99.90;;;;;;4938794;28;19926;-58
2023/12/28 03:22:01;;;;;;;;;;;9.30;99.90;;;;;;4940854;28;20065;-57
2023/12/28 03:24:27;;;;;;;;;;;9.30;99.90;;;;;;4930234;28;20329;-57
2023/12/28 03:26:52;;;;;;;;;;;9.30;99.90;;;;;;4939792;28;20611;-58
2023/12/28 03:29:18;;;;;;;;;;;9.40;99.90;;;;;;4940631;28;20020;-58
2023/12/28 03:31:43;;;;;;;;;;;9.40;99.90;;;;;;4939757;28;20050;-58
2023/12/28 03:34:09;;;;;;;;;;;9.40;99.90;;;;;;4923734;28;20417;-57
2023/12/28 03:36:35;;;;;;;;;;;9.40;99.90;;;;;;4942535;28;21946;-58
2023/12/28 03:39:00;;;;;;;;;;;9.40;99.90;;;;;;4940055;28;19941;-58
2023/12/28 03:41:26;;;;;;;;;;;9.40;99.90;;;;;;4939875;28;19973;-58
2023/12/28 03:43:51;;;;;;;;;;;9.40;99.90;;;;;;4943522;28;19925;-57
2023/12/28 03:46:17;;;;;;;;;;;9.40;99.90;;;;;;4938784;28;19927;-58
2023/12/28 03:48:42;;;;;;;;;;;9.50;99.90;;;;;;4937487;28;19952;-58
2023/12/28 03:51:13;;;;;;;;;;;9.40;99.90;;;;;;4942760;28;19922;-57
2023/12/28 03:53:38;;;;;;;;;;;9.40;99.90;;;;;;4927952;28;19933;-56
2023/12/28 03:56:04;;;;;;;;;;;9.50;99.90;;;;;;4939845;28;20458;-58
2023/12/28 03:58:29;;;;;;;;;;;9.40;99.90;;;;;;4937174;28;20368;-57
2023/12/28 04:00:55;;;;;;;;;;;9.40;99.90;;;;;;4941664;28;19922;-57
2023/12/28 04:03:20;;;;;;;;;;;9.40;99.90;;;;;;4937768;28;20402;-57
2023/12/28 04:05:46;;;;;;;;;;;9.40;99.90;;;;;;4937457;28;19938;-57
2023/12/28 04:08:12;;;;;;;;;;;9.50;99.90;;;;;;4920570;28;19932;-58
2023/12/28 04:10:37;;;;;;;;;;;9.50;99.90;;;;;;4941000;28;19922;-57
2023/12/28 04:13:03;;;;;;;;;;;9.50;99.90;;;;;;4942764;28;19983;-58
2023/12/28 04:15:29;;;;;;;;;;;9.60;99.90;;;;;;4935191;28;20282;-57
2023/12/28 04:17:55;;;;;;;;;;;9.60;99.90;;;;;;4935181;28;19933;-57
2023/12/28 04:20:21;;;;;;;;;;;9.60;99.90;;;;;;4941720;28;19926;-58
2023/12/28 04:22:47;;;;;;;;;;;9.60;99.90;;;;;;4935625;28;20277;-58
2023/12/28 04:25:12;;;;;;;;;;;9.60;99.90;;;;;;4909732;28;19930;-58
2023/12/28 04:27:38;;;;;;;;;;;9.60;99.90;;;;;;4940013;28;19949;-58
2023/12/28 04:30:05;;;;;;;;;;;9.70;99.90;;;;;;4937026;28;19926;-59
2023/12/28 04:32:32;;;;;;;;;;;9.70;99.90;;;;;;4927416;28;19961;-58
2023/12/28 04:34:57;;;;;;;;;;;9.70;99.90;;;;;;4940477;28;20406;-58
2023/12/28 04:37:23;;;;;;;;;;;9.70;99.90;;;;;;4941070;28;20769;-58
2023/12/28 04:39:49;;;;;;;;;;;9.70;99.90;;;;;;4941238;28;19976;-56
2023/12/28 04:42:14;;;;;;;;;;;9.70;99.90;;;;;;4947940;28;19926;-58
2023/12/28 04:44:40;;;;;;;;;;;9.70;99.90;;;;;;4944689;28;19922;-59
2023/12/28 04:47:06;;;;;;;;;;;9.70;99.90;;;;;;4938156;28;19949;-57
2023/12/28 04:49:32;;;;;;;;;;;9.70;99.90;;;;;;4943435;28;19945;-57
2023/12/28 04:51:57;;;;;;;;;;;9.70;99.90;;;;;;4926393;28;19929;-58
2023/12/28 04:54:23;;;;;;;;;;;9.70;99.90;;;;;;4940936;28;19969;-57
2023/12/28 04:56:49;;;;;;;;;;;9.70;99.90;;;;;;4940471;28;20280;-58
2023/12/28 04:59:14;;;;;;;;;;;9.70;99.90;;;;;;4939556;28;20082;-58
2023/12/28 05:01:40;;;;;;;;;;;9.70;99.90;;;;;;4934605;28;19933;-57
2023/12/28 05:04:06;;;;;;;;;;;9.80;99.90;;;;;;4937314;28;20032;-57
2023/12/28 05:06:31;;;;;;;;;;;9.80;99.90;;;;;;4940463;28;20498;-56
2023/12/28 05:08:57;;;;;;;;;;;9.80;99.90;;;;;;4941270;28;20381;-57
2023/12/28 05:11:23;;;;;;;;;;;9.80;99.90;;;;;;4937469;28;20547;-57
2023/12/28 05:13:48;;;;;;;;;;;9.80;99.90;;;;;;4938418;28;20066;-57
2023/12/28 05:16:14;;;;;;;;;;;9.80;99.90;;;;;;4936572;28;19968;-59
2023/12/28 05:18:39;;;;;;;;;;;9.80;99.90;;;;;;4940756;28;20312;-58
2023/12/28 05:21:05;;;;;;;;;;;9.90;99.90;;;;;;4936478;28;19933;-58
2023/12/28 05:23:30;;;;;;;;;;;9.90;99.90;;;;;;4941481;28;19925;-58
2023/12/28 05:25:56;;;;;;;;;;;9.90;99.90;;;;;;4941644;28;19926;-58
2023/12/28 05:28:22;;;;;;;;;;;9.80;99.90;;;;;;4937577;28;20301;-58
2023/12/28 05:30:47;;;;;;;;;;;9.90;99.90;;;;;;4942206;28;19926;-56
2023/12/28 05:33:13;;;;;;;;;;;9.80;99.90;;;;;;4927506;28;19993;-58
2023/12/28 05:35:38;;;;;;;;;;;9.90;99.90;;;;;;4923969;28;20021;-58
2023/12/28 05:38:04;;;;;;;;;;;9.90;99.90;;;;;;4939516;28;19926;-58
2023/12/28 05:40:30;;;;;;;;;;;9.90;99.90;;;;;;4929041;28;19929;-58
2023/12/28 05:42:55;;;;;;;;;;;9.90;99.90;;;;;;4939583;28;20306;-57
2023/12/28 05:45:21;;;;;;;;;;;9.90;99.90;;;;;;4939326;28;20025;-58
2023/12/28 05:47:46;;;;;;;;;;;9.90;99.90;;;;;;4936456;28;20403;-59
2023/12/28 05:50:12;;;;;;;;;;;9.90;99.90;;;;;;4924789;28;20577;-58
2023/12/28 05:52:38;;;;;;;;;;;9.90;99.90;;;;;;4921049;28;19930;-58
2023/12/28 05:55:04;;;;;;;;;;;9.90;99.90;;;;;;4937309;28;19937;-57
2023/12/28 05:57:30;;;;;;;;;;;9.90;99.90;;;;;;4939049;28;20377;-56
2023/12/28 05:59:56;;;;;;;;;;;9.90;99.90;;;;;;4939050;28;19922;-58
2023/12/28 06:02:22;;;;;;;;;;;9.90;99.90;;;;;;4938586;28;20024;-57
2023/12/28 06:04:48;;;;;;;;;;;9.90;99.90;;;;;;4934472;28;19933;-58
2023/12/28 06:07:13;;;;;;;;;;;9.90;99.90;;;;;;4939434;28;19937;-57
2023/12/28 06:09:39;;;;;;;;;;;9.90;99.90;;;;;;4916770;28;19926;-57
2023/12/28 06:12:05;;;;;;;;;;;9.90;99.90;;;;;;4934085;28;19926;-56
2023/12/28 06:14:30;;;;;;;;;;;9.80;99.90;;;;;;4919360;28;20385;-58
2023/12/28 06:16:56;;;;;;;;;;;9.80;99.90;;;;;;4936468;28;20064;-57
2023/12/28 06:19:22;;;;;;;;;;;9.80;99.90;;;;;;4939187;28;20005;-58
2023/12/28 06:21:50;;;;;;;;;;;9.80;99.90;;;;;;4934530;28;19926;-58
2023/12/28 06:24:16;;;;;;;;;;;9.90;99.90;;;;;;4936080;28;19930;-57
2023/12/28 06:26:42;;;;;;;;;;;9.90;99.90;;;;;;4938310;28;19922;-58
2023/12/28 06:29:08;;;;;;;;;;;9.90;99.90;;;;;;4929927;28;20110;-58
2023/12/28 06:31:35;;;;;;;;;;;9.90;99.90;;;;;;4915414;28;20806;-58
2023/12/28 06:34:05;;;;;;;;;;;9.90;99.90;;;;;;4938437;28;20389;-57
2023/12/28 06:36:31;;;;;;;;;;;9.90;99.90;;;;;;4938536;28;20007;-58
2023/12/28 06:38:57;;;;;;;;;;;10.00;99.90;;;;;;4916098;28;20420;-58
2023/12/28 06:41:23;;;;;;;;;;;10.00;99.90;;;;;;4935952;28;20043;-59
2023/12/28 06:43:49;;;;;;;;;;;10.00;99.90;;;;;;4936937;28;20848;-58
2023/12/28 06:46:14;;;;;;;;;;;10.00;99.90;;;;;;4936664;28;19977;-57
2023/12/28 06:48:40;;;;;;;;;;;10.00;99.90;;;;;;4935994;28;21111;-58
2023/12/28 06:51:06;;;;;;;;;;;10.00;99.90;;;;;;4939890;28;20337;-58
2023/12/28 06:53:32;;;;;;;;;;;10.00;99.90;;;;;;4938740;28;19925;-57
2023/12/28 06:55:57;;;;;;;;;;;10.00;99.90;;;;;;4944840;28;19926;-58
2023/12/28 06:58:23;;;;;;;;;;;10.00;99.90;;;;;;4924878;28;19926;-57
2023/12/28 07:00:48;;;;;;;;;;;10.00;99.90;;;;;;4938653;28;20424;-58
2023/12/28 07:03:14;;;;;;;;;;;10.00;99.90;;;;;;4941708;28;20063;-58
2023/12/28 07:05:39;;;;;;;;;;;10.00;99.90;;;;;;4945292;28;19922;-58
2023/12/28 07:08:05;;;;;;;;;;;10.00;99.90;;;;;;4941222;28;20699;-57
2023/12/28 07:10:31;;;;;;;;;;;10.00;99.90;;;;;;4943148;28;19989;-57
2023/12/28 07:12:56;;;;;;;;;;;10.00;99.90;;;;;;4945055;28;20373;-58
2023/12/28 07:15:22;;;;;;;;;;;10.10;99.90;;;;;;4946157;28;19925;-58
2023/12/28 07:17:48;;;;;;;;;;;10.10;99.90;;;;;;4942121;28;20497;-58
2023/12/28 07:20:14;;;;;;;;;;;10.10;99.90;;;;;;4945422;28;19926;-58
2023/12/28 07:22:39;;;;;;;;;;;10.10;99.90;;;;;;4944827;28;19930;-58
2023/12/28 07:25:06;;;;;;;;;;;10.10;99.90;;;;;;4915190;28;19922;-58
2023/12/28 07:27:32;;;;;;;;;;;10.10;99.90;;;;;;4913637;28;19921;-59
2023/12/28 07:29:58;;;;;;;;;;;10.10;99.90;;;;;;4944138;28;20998;-58
2023/12/28 07:32:25;;;;;;;;;;;10.10;99.90;;;;;;4943845;28;20064;-58
2023/12/28 07:34:52;;;;;;;;;;;10.10;99.90;;;;;;4939528;28;20036;-58
2023/12/28 07:37:18;;;;;;;;;;;10.10;99.90;;;;;;4944318;28;19926;-58
2023/12/28 07:39:43;;;;;;;;;;;10.10;99.90;;;;;;4922328;28;20316;-58
2023/12/28 07:42:09;;;;;;;;;;;10.10;99.90;;;;;;4924334;28;20439;-58
2023/12/28 07:44:35;;;;;;;;;;;10.10;99.90;;;;;;4925685;28;28019;-56
2023/12/28 07:47:01;;;;;;;;;;;10.00;99.90;;;;;;4942993;28;20414;-58
2023/12/28 07:49:27;;;;;;;;;;;10.10;99.90;;;;;;4942437;28;19926;-57
2023/12/28 07:51:53;;;;;;;;;;;10.00;99.90;;;;;;4923103;28;19922;-56
2023/12/28 07:54:18;;;;;;;;;;;10.10;99.90;;;;;;4943013;28;20297;-57
2023/12/28 07:56:44;;;;;;;;;;;10.10;99.90;;;;;;4929739;28;20297;-58
2023/12/28 07:59:09;;;;;;;;;;;10.10;99.90;;;;;;4912190;28;20505;-58
2023/12/28 08:01:35;;;;;;;;;;;10.10;99.90;;;;;;4945375;28;19930;-58
2023/12/28 08:04:01;;;;;;;;;;;10.20;99.90;;;;;;4941667;28;19922;-58
2023/12/28 08:06:29;;;;;;;;;;;10.10;99.90;;;;;;4923300;28;19926;-58
2023/12/28 08:08:54;;;;;;;;;;;10.20;99.90;;;;;;4939421;28;19930;-58
2023/12/28 08:11:20;;;;;;;;;;;10.20;99.90;;;;;;4941053;28;20020;-59
2023/12/28 08:13:46;;;;;;;;;;;10.20;99.90;;;;;;4942952;28;20065;-58
2023/12/28 08:16:12;;;;;;;;;;;10.30;99.90;;;;;;4941985;28;20625;-58
2023/12/28 08:18:37;;;;;;;;;;;10.30;99.90;;;;;;4928455;28;19926;-58
2023/12/28 08:21:03;;;;;;;;;;;10.30;99.90;;;;;;4941127;28;19932;-58
2023/12/28 08:23:29;;;;;;;;;;;10.30;99.90;;;;;;4940820;28;20437;-57
2023/12/28 08:25:54;;;;;;;;;;;10.30;99.90;;;;;;4941558;28;20393;-57
2023/12/28 08:28:20;;;;;;;;;;;10.40;99.90;;;;;;4925860;28;19926;-59
2023/12/28 08:30:45;;;;;;;;;;;10.40;99.90;;;;;;4926102;28;19980;-57
2023/12/28 08:33:11;;;;;;;;;;;10.40;99.90;;;;;;4938954;28;19977;-58
2023/12/28 08:35:37;;;;;;;;;;;10.40;99.90;;;;;;4938483;28;20356;-58
2023/12/28 08:38:02;;;;;;;;;;;10.40;99.90;;;;;;4935421;28;19929;-58
2023/12/28 08:40:28;;;;;;;;;;;10.40;99.90;;;;;;4928450;28;19929;-57
2023/12/28 08:42:53;;;;;;;;;;;10.50;99.90;;;;;;4933862;28;21016;-58
2023/12/28 08:45:19;;;;;;;;;;;10.40;99.90;;;;;;4929644;28;19922;-58
2023/12/28 08:47:45;;;;;;;;;;;10.40;99.90;;;;;;4942042;28;20545;-58
2023/12/28 08:50:10;;;;;;;;;;;10.50;99.90;;;;;;4938106;28;19926;-59
2023/12/28 08:52:36;;;;;;;;;;;10.50;99.90;;;;;;4940636;28;20361;-58
2023/12/28 08:55:02;;;;;;;;;;;10.40;99.90;;;;;;4932859;28;19957;-57
2023/12/28 08:57:27;;;;;;;;;;;10.50;99.90;;;;;;4942424;28;19928;-58
2023/12/28 08:59:53;;;;;;;;;;;10.50;99.90;;;;;;4942223;28;19977;-58
2023/12/28 09:02:19;;;;;;;;;;;10.40;99.90;;;;;;4936531;28;19926;-58
2023/12/28 09:04:45;;;;;;;;;;;10.50;99.90;;;;;;4931023;28;20007;-59
2023/12/28 09:07:10;;;;;;;;;;;10.50;99.90;;;;;;4928174;28;19953;-58
2023/12/28 09:09:36;;;;;;;;;;;10.50;99.90;;;;;;4936240;28;19933;-59
2023/12/28 09:12:01;;;;;;;;;;;10.60;99.90;;;;;;4932264;28;19933;-58
2023/12/28 09:14:27;;;;;;;;;;;10.60;99.90;;;;;;4939360;28;20308;-58
2023/12/28 09:16:53;;;;;;;;;;;10.60;99.90;;;;;;4929501;28;20304;-62
2023/12/28 09:19:18;;;;;;;;;;;10.70;99.90;;;;;;4938010;28;19966;-58
2023/12/28 09:21:44;;;;;;;;;;;10.70;99.90;;;;;;4937489;28;19948;-57
2023/12/28 09:24:09;;;;;;;;;;;10.70;99.90;;;;;;4934620;28;20291;-57
2023/12/28 09:26:35;;;;;;;;;;;10.70;99.90;;;;;;4939675;28;19929;-58
2023/12/28 09:29:01;;;;;;;;;;;10.70;99.90;;;;;;4923555;28;19919;-59
2023/12/28 09:31:26;;;;;;;;;;;10.70;99.90;;;;;;4936260;28;19933;-59
2023/12/28 09:33:52;;;;;;;;;;;10.70;99.90;;;;;;4935943;28;20317;-58
2023/12/28 09:36:18;;;;;;;;;;;10.70;99.90;;;;;;4941070;28;20052;-59
2023/12/28 09:38:44;;;;;;;;;;;10.70;99.90;;;;;;4940105;28;20040;-59
2023/12/28 09:41:16;;;;;;;;;;;10.70;99.90;;;;;;4936016;28;19921;-58
2023/12/28 09:43:50;;;;;;;;;;;10.70;99.90;;;;;;4942334;28;20440;-58
2023/12/28 09:46:16;;;;;;;;;;;10.70;99.90;;;;;;4919227;28;19926;-59
2023/12/28 09:48:42;;;;;;;;;;;10.70;99.90;;;;;;4940185;28;20404;-59
2023/12/28 09:51:10;;;;;;;;;;;10.70;99.90;;;;;;4938984;28;19929;-57
2023/12/28 09:53:35;;;;;;;;;;;10.70;99.90;;;;;;4935604;28;19945;-59
2023/12/28 09:56:02;;;;;;;;;;;10.70;99.90;;;;;;4936666;28;19939;-58
2023/12/28 09:58:29;;;;;;;;;;;10.60;99.90;;;;;;4931352;28;20389;-57
2023/12/28 10:00:56;;;;;;;;;;;10.70;99.90;;;;;;4898249;28;20249;-56
2023/12/28 10:03:22;;;;;;;;;;;10.70;99.90;;;;;;4929997;28;20452;-58
2023/12/28 10:05:47;;;;;;;;;;;10.60;99.90;;;;;;4908228;28;20017;-58
2023/12/28 10:08:13;;;;;;;;;;;10.60;99.90;;;;;;4921874;28;19926;-58
2023/12/28 10:10:40;;;;;;;;;;;10.60;99.90;;;;;;4930146;28;19926;-57
2023/12/28 10:13:09;;;;;;;;;;;10.60;99.90;;;;;;4936219;28;19926;-58
2023/12/28 10:15:38;;;;;;;;;;;10.60;99.90;;;;;;4934612;28;19933;-59
2023/12/28 10:18:04;;;;;;;;;;;10.60;99.90;;;;;;4931480;28;19926;-57
2023/12/28 10:20:30;;;;;;;;;;;10.60;99.90;;;;;;4935974;28;19922;-57
2023/12/28 10:22:57;;;;;;;;;;;10.70;99.90;;;;;;4914326;28;20274;-57
2023/12/28 10:25:23;;;;;;;;;;;10.70;99.90;;;;;;4930772;28;20365;-59
2023/12/28 10:27:52;;;;;;;;;;;10.70;99.90;;;;;;4934678;28;19953;-57
2023/12/28 10:30:19;;;;;;;;;;;10.70;99.90;;;;;;4935200;28;20510;-57
2023/12/28 10:32:45;;;;;;;;;;;10.70;99.90;;;;;;4934137;28;20788;-57
2023/12/28 10:35:11;;;;;;;;;;;10.70;99.90;;;;;;4934689;28;19925;-59
2023/12/28 10:37:39;;;;;;;;;;;10.70;99.90;;;;;;4935711;28;20025;-59
2023/12/28 10:40:06;;;;;;;;;;;10.70;99.90;;;;;;4934567;28;20056;-57
2023/12/28 10:42:33;;;;;;;;;;;10.70;99.90;;;;;;4936133;28;20337;-59
2023/12/28 10:45:03;;;;;;;;;;;10.70;99.90;;;;;;4910225;28;19923;-58
2023/12/28 10:47:31;;;;;;;;;;;10.70;99.90;;;;;;4909076;28;20025;-59
2023/12/28 10:49:57;;;;;;;;;;;10.70;99.90;;;;;;4921503;28;20421;-58
2023/12/28 10:52:26;;;;;;;;;;;10.70;99.90;;;;;;4939202;28;19929;-59
2023/12/28 10:55:19;;;;;;;;;;;10.70;99.90;;;;;;4939268;28;21573;-57
2023/12/28 10:57:48;;;;;;;;;;;10.70;99.90;;;;;;4927016;28;19922;-58
2023/12/28 11:00:17;;;;;;;;;;;10.70;99.90;;;;;;4938633;28;19985;-58
2023/12/28 11:02:44;;;;;;;;;;;10.70;99.90;;;;;;4918152;28;19926;-58
2023/12/28 11:05:11;;;;;;;;;;;10.70;99.90;;;;;;4933956;28;20888;-57
2023/12/28 11:07:38;;;;;;;;;;;10.70;99.90;;;;;;4935339;28;19923;-58
2023/12/28 11:10:05;;;;;;;;;;;10.70;99.90;;;;;;4938132;28;19925;-58
2023/12/28 11:12:31;;;;;;;;;;;10.70;99.90;;;;;;4932700;28;19966;-58
2023/12/28 11:14:57;;;;;;;;;;;10.70;99.90;;;;;;4919431;28;20378;-58
2023/12/28 11:17:24;;;;;;;;;;;10.70;99.90;;;;;;4921795;28;19978;-58
2023/12/28 11:19:53;;;;;;;;;;;10.70;99.90;;;;;;4937478;28;20542;-58
2023/12/28 11:22:19;;;;;;;;;;;10.70;99.90;;;;;;4933851;28;19917;-59
2023/12/28 11:24:45;;;;;;;;;;;10.70;99.90;;;;;;4939180;28;19922;-58
2023/12/28 11:27:11;;;;;;;;;;;10.70;99.90;;;;;;4914159;28;20139;-59
2023/12/28 11:29:37;;;;;;;;;;;10.70;99.90;;;;;;4930518;28;20441;-59
2023/12/28 11:32:02;;;;;;;;;;;10.70;99.90;;;;;;4937489;28;19926;-58
2023/12/28 11:34:29;;;;;;;;;;;10.70;99.90;;;;;;4923455;28;19922;-59
2023/12/28 11:36:55;;;;;;;;;;;10.80;99.90;;;;;;4934692;28;19925;-58
2023/12/28 11:39:44;;;;;;;;;;;10.80;99.90;;;;;;4935107;28;19926;-59
2023/12/28 11:42:10;;;;;;;;;;;10.80;99.90;;;;;;4933350;28;19926;-59
2023/12/28 11:44:41;;;;;;;;;;;10.80;99.90;;;;;;4927232;28;20038;-60
2023/12/28 11:47:20;;;;;;;;;;;10.80;99.90;;;;;;4934746;28;19926;-60
2023/12/28 11:49:47;;;;;;;;;;;10.80;99.90;;;;;;4936072;28;20050;-60
2023/12/28 11:52:26;;;;;;;;;;;10.80;99.90;;;;;;4934414;28;19931;-60
2023/12/28 11:54:51;;;;;;;;;;;10.80;99.90;;;;;;4936739;28;20006;-60
2023/12/28 11:57:17;;;;;;;;;;;10.80;99.90;;;;;;4909036;28;20110;-60
2023/12/28 11:59:43;;;;;;;;;;;10.70;99.90;;;;;;4934547;28;20013;-60
2023/12/28 12:02:09;;;;;;;;;;;10.70;99.90;;;;;;4914650;28;19922;-59
2023/12/28 12:04:35;;;;;;;;;;;10.70;99.90;;;;;;4922577;28;19972;-60
2023/12/28 12:07:04;;;;;;;;;;;10.70;99.90;;;;;;4944297;28;20305;-59
2023/12/28 12:09:34;;;;;;;;;;;10.70;99.90;;;;;;4929830;28;19926;-60
2023/12/28 12:12:00;;;;;;;;;;;10.70;99.90;;;;;;4923755;28;19976;-59
2023/12/28 12:14:26;;;;;;;;;;;10.70;99.90;;;;;;4922884;28;19977;-59
2023/12/28 12:16:52;;;;;;;;;;;10.80;99.90;;;;;;4925380;28;19928;-60
2023/12/28 12:19:18;;;;;;;;;;;10.70;99.90;;;;;;4942995;28;19926;-60
2023/12/28 12:21:43;;;;;;;;;;;10.70;99.90;;;;;;4923940;28;19932;-60
2023/12/28 12:24:09;;;;;;;;;;;10.70;99.90;;;;;;4922011;28;20011;-60
2023/12/28 12:26:36;;;;;;;;;;;10.60;99.90;;;;;;4946706;28;19933;-59
2023/12/28 12:29:02;;;;;;;;;;;10.60;99.90;;;;;;4912291;28;19945;-58
2023/12/28 12:31:27;;;;;;;;;;;10.60;99.90;;;;;;4941299;28;20047;-59
2023/12/28 12:33:53;;;;;;;;;;;10.60;99.90;;;;;;4939573;28;21871;-60
2023/12/28 12:36:19;;;;;;;;;;;10.60;99.90;;;;;;4928749;28;19926;-60
2023/12/28 12:38:44;;;;;;;;;;;10.60;99.90;;;;;;4945576;28;19922;-60
2023/12/28 12:41:10;;;;;;;;;;;10.60;99.90;;;;;;4930354;28;19964;-59
2023/12/28 12:43:36;;;;;;;;;;;10.70;99.90;;;;;;4940859;28;20020;-60
2023/12/28 12:46:01;;;;;;;;;;;10.70;99.90;;;;;;4925749;28;19928;-59
2023/12/28 12:48:27;;;;;;;;;;;10.70;99.90;;;;;;4927109;28;19926;-59
2023/12/28 12:50:53;;;;;;;;;;;10.70;99.90;;;;;;4943774;28;19944;-59
2023/12/28 12:53:18;;;;;;;;;;;10.70;99.90;;;;;;4925584;28;19930;-59
2023/12/28 12:55:46;;;;;;;;;;;10.60;99.90;;;;;;4943661;28;20472;-58
2023/12/28 12:58:13;;;;;;;;;;;10.70;99.90;;;;;;4941043;28;20012;-59
2023/12/28 13:00:41;;;;;;;;;;;10.70;99.90;;;;;;4922422;28;19927;-59
2023/12/28 13:03:10;;;;;;;;;;;10.70;99.90;;;;;;4943996;28;20016;-59
2023/12/28 13:05:37;;;;;;;;;;;10.70;99.90;;;;;;4933658;28;20431;-59
2023/12/28 13:08:03;;;;;;;;;;;10.70;99.90;;;;;;4924709;28;20432;-60
2023/12/28 13:10:29;;;;;;;;;;;10.70;99.90;;;;;;4937226;28;19918;-60
2023/12/28 13:12:54;;;;;;;;;;;10.70;99.90;;;;;;4920265;28;19926;-60
2023/12/28 13:15:20;;;;;;;;;;;10.70;99.90;;;;;;4925101;28;19926;-59
2023/12/28 13:17:46;;;;;;;;;;;10.70;99.90;;;;;;4945569;28;19928;-60
2023/12/28 13:20:11;;;;;;;;;;;10.70;99.90;;;;;;4941050;28;20467;-60
2023/12/28 13:22:37;;;;;;;;;;;10.70;99.90;;;;;;4939409;28;20281;-60
2023/12/28 13:25:03;;;;;;;;;;;10.70;99.90;;;;;;4946697;28;19933;-59
2023/12/28 13:27:29;;;;;;;;;;;10.80;99.90;;;;;;4949074;28;19928;-59
2023/12/28 13:29:55;;;;;;;;;;;10.70;99.90;;;;;;4950510;28;19922;-60
2023/12/28 13:32:21;;;;;;;;;;;10.70;99.90;;;;;;4931624;28;19925;-59
2023/12/28 13:34:46;;;;;;;;;;;10.70;99.90;;;;;;4929721;28;19922;-60
2023/12/28 13:37:12;;;;;;;;;;;10.70;99.90;;;;;;4942784;28;19948;-58
2023/12/28 13:39:38;;;;;;;;;;;10.70;99.90;;;;;;4942170;28;20029;-59
2023/12/28 13:42:05;;;;;;;;;;;10.70;99.90;;;;;;4916823;28;19926;-59
2023/12/28 13:44:33;;;;;;;;;;;10.70;99.90;;;;;;4928645;28;19925;-60
2023/12/28 13:46:58;;;;;;;;;;;10.70;99.90;;;;;;4947141;28;19929;-60
2023/12/28 13:49:25;;;;;;;;;;;10.70;99.90;;;;;;4951247;28;20678;-60
2023/12/28 13:51:51;;;;;;;;;;;10.60;99.90;;;;;;4950127;28;19926;-59
2023/12/28 13:54:19;;;;;;;;;;;10.60;99.90;;;;;;4949071;28;19929;-59
2023/12/28 13:56:45;;;;;;;;;;;10.60;99.90;;;;;;4932074;28;19933;-59
2023/12/28 13:59:11;;;;;;;;;;;10.70;99.90;;;;;;4933899;28;20312;-60
2023/12/28 14:01:36;;;;;;;;;;;10.60;99.90;;;;;;4951692;28;19933;-59
2023/12/28 14:04:03;;;;;;;;;;;10.60;99.90;;;;;;4931933;28;19925;-59
2023/12/28 14:06:29;;;;;;;;;;;10.60;99.90;;;;;;4933192;28;20290;-58
2023/12/28 14:08:54;;;;;;;;;;;10.60;99.90;;;;;;4950506;28;19937;-60
2023/12/28 14:11:20;;;;;;;;;;;10.60;99.90;;;;;;4921252;28;19922;-59
2023/12/28 14:13:45;;;;;;;;;;;10.60;99.90;;;;;;4946194;28;20454;-59
2023/12/28 14:16:11;;;;;;;;;;;10.60;99.90;;;;;;4947563;28;19926;-60
2023/12/28 14:18:39;;;;;;;;;;;10.60;99.90;;;;;;4947804;28;19972;-59